createdAt,value
2019-05-19T00:00:03.484Z,11.86
2019-05-19T00:02:34.103Z,11.84
2019-05-19T00:05:04.882Z,11.78
2019-05-19T00:07:54.744Z,11.71
2019-05-19T00:10:44.562Z,11.72
2019-05-19T00:13:34.370Z,11.69
2019-05-19T00:16:06.469Z,11.69
2019-05-19T00:18:56.343Z,11.67
2019-05-19T00:21:46.176Z,11.73
2019-05-19T00:24:35.971Z,11.69
2019-05-19T00:27:06.849Z,11.63
2019-05-19T00:29:37.253Z,11.57
2019-05-19T00:32:27.044Z,11.53
2019-05-19T00:35:16.877Z,11.57
2019-05-19T00:37:47.274Z,11.70
2019-05-19T00:40:37.055Z,11.72
2019-05-19T00:43:27.019Z,11.72
2019-05-19T00:49:38.895Z,11.40
2019-05-19T00:52:17.702Z,11.27
2019-05-19T00:55:09.771Z,11.15
2019-05-19T01:01:20.769Z,11.00
2019-05-19T01:04:10.588Z,10.95
2019-05-19T01:07:00.389Z,10.88
2019-05-19T01:09:50.276Z,10.81
2019-05-19T01:12:40.154Z,10.74
2019-05-19T01:15:29.959Z,10.68
2019-05-19T01:18:19.920Z,10.67
2019-05-19T01:20:50.362Z,10.64
2019-05-19T01:23:40.255Z,10.61
2019-05-19T01:26:30.347Z,10.59
2019-05-19T01:29:02.429Z,10.60
2019-05-19T01:31:52.346Z,10.58
2019-05-19T01:34:42.205Z,10.57
2019-05-19T01:37:32.144Z,10.56
2019-05-19T01:40:22.030Z,10.55
2019-05-19T01:43:11.922Z,10.72
2019-05-19T01:46:01.855Z,10.89
2019-05-19T01:48:51.745Z,10.98
2019-05-19T01:51:41.632Z,10.99
2019-05-19T01:54:31.461Z,10.93
2019-05-19T01:57:21.304Z,10.84
2019-05-19T02:03:14.684Z,10.77
2019-05-19T02:06:04.490Z,10.82
2019-05-19T02:08:54.325Z,10.85
2019-05-19T02:11:44.110Z,10.88
2019-05-19T02:14:33.938Z,10.84
2019-05-19T02:17:23.761Z,10.77
2019-05-19T02:20:13.848Z,10.76
2019-05-19T02:23:03.687Z,10.72
2019-05-19T02:25:53.548Z,10.72
2019-05-19T02:28:43.408Z,10.68
2019-05-19T02:31:33.227Z,10.66
2019-05-19T02:34:23.044Z,10.64
2019-05-19T02:37:12.897Z,10.77
2019-05-19T02:40:02.745Z,10.91
2019-05-19T02:43:04.278Z,10.84
2019-05-19T03:00:55.951Z,10.69
2019-05-19T03:03:45.757Z,10.70
2019-05-19T03:06:35.658Z,10.70
2019-05-19T03:09:44.463Z,10.80
2019-05-19T03:12:34.295Z,10.97
2019-05-19T03:15:05.201Z,11.12
2019-05-19T03:17:55.043Z,11.15
2019-05-19T03:20:44.902Z,11.32
2019-05-19T03:23:34.761Z,11.32
2019-05-19T03:26:05.330Z,11.33
2019-05-19T03:28:55.204Z,11.34
2019-05-19T03:34:33.277Z,11.33
2019-05-19T03:37:23.228Z,11.36
2019-05-19T03:40:31.925Z,11.40
2019-05-19T03:43:22.258Z,11.50
2019-05-19T03:45:52.730Z,11.58
2019-05-19T03:48:42.534Z,11.62
2019-05-19T03:51:32.920Z,11.69
2019-05-19T03:54:22.795Z,11.86
2019-05-19T03:56:53.320Z,11.98
2019-05-19T03:59:43.125Z,12.07
2019-05-19T04:02:32.929Z,12.21
2019-05-19T04:05:22.662Z,12.39
2019-05-19T04:08:12.516Z,12.52
2019-05-19T04:11:02.272Z,12.56
2019-05-19T04:13:52.082Z,12.58
2019-05-19T04:16:41.872Z,12.53
2019-05-19T04:19:12.320Z,12.54
2019-05-19T04:22:02.503Z,12.62
2019-05-19T04:24:52.276Z,12.61
2019-05-19T04:27:42.109Z,12.69
2019-05-19T04:30:31.929Z,12.70
2019-05-19T04:33:02.385Z,12.70
2019-05-19T04:35:52.212Z,12.74
2019-05-19T04:38:41.994Z,12.80
2019-05-19T04:41:31.899Z,12.85
2019-05-19T04:44:21.724Z,12.98
2019-05-19T04:47:11.558Z,13.14
2019-05-19T04:50:01.341Z,13.27
2019-05-19T04:52:52.001Z,13.42
2019-05-19T04:55:41.879Z,13.57
2019-05-19T04:58:31.700Z,13.72
2019-05-19T05:01:21.626Z,13.76
2019-05-19T05:03:52.036Z,13.82
2019-05-19T05:06:41.815Z,13.88
2019-05-19T05:09:31.626Z,13.94
2019-05-19T05:12:21.540Z,13.95
2019-05-19T05:15:11.547Z,13.89
2019-05-19T05:18:01.349Z,13.86
2019-05-19T05:20:51.169Z,13.81
2019-05-19T05:23:40.922Z,13.90
2019-05-19T05:26:30.752Z,13.97
2019-05-19T05:29:34.472Z,14.13
2019-05-19T05:32:03.373Z,14.17
2019-05-19T05:34:53.172Z,14.25
2019-05-19T05:37:23.577Z,14.44
2019-05-19T05:40:13.462Z,14.66
2019-05-19T05:43:03.233Z,14.86
2019-05-19T05:45:52.989Z,15.08
2019-05-19T05:48:42.846Z,15.29
2019-05-19T05:51:32.617Z,15.37
2019-05-19T05:54:22.501Z,15.56
2019-05-19T05:57:12.239Z,15.61
2019-05-19T05:59:42.660Z,15.68
2019-05-19T06:02:32.425Z,15.73
2019-05-19T06:05:22.255Z,15.80
2019-05-19T06:07:52.624Z,15.91
2019-05-19T06:10:42.405Z,15.96
2019-05-19T06:13:32.170Z,16.10
2019-05-19T06:16:21.976Z,16.30
2019-05-19T06:19:11.791Z,16.24
2019-05-19T06:22:01.590Z,16.45
2019-05-19T06:24:33.695Z,16.48
2019-05-19T06:27:23.446Z,16.66
2019-05-19T06:30:13.381Z,16.78
2019-05-19T06:35:59.796Z,16.77
2019-05-19T06:38:49.711Z,16.80
2019-05-19T06:41:26.503Z,16.84
2019-05-19T06:44:16.287Z,16.86
2019-05-19T06:47:06.066Z,17.10
2019-05-19T06:49:55.848Z,17.39
2019-05-19T06:52:45.616Z,17.60
2019-05-19T06:55:35.490Z,17.85
2019-05-19T06:58:07.534Z,17.97
2019-05-19T07:00:59.280Z,17.86
2019-05-19T07:03:48.826Z,18.08
2019-05-19T07:06:38.686Z,18.24
2019-05-19T07:09:28.704Z,18.45
2019-05-19T07:11:59.136Z,18.66
2019-05-19T07:14:48.935Z,18.67
2019-05-19T07:17:38.760Z,18.73
2019-05-19T07:23:28.344Z,18.71
2019-05-19T07:26:09.255Z,18.89
2019-05-19T07:28:59.131Z,19.04
2019-05-19T07:31:48.936Z,19.24
2019-05-19T07:34:38.766Z,19.41
2019-05-19T07:37:28.608Z,19.65
2019-05-19T07:39:59.288Z,19.79
2019-05-19T07:43:00.833Z,19.83
2019-05-19T07:45:34.649Z,20.03
2019-05-19T07:48:05.078Z,20.20
2019-05-19T07:50:54.915Z,20.16
2019-05-19T07:53:45.606Z,20.20
2019-05-19T07:56:35.391Z,20.29
2019-05-19T07:59:08.102Z,20.36
2019-05-19T08:01:50.546Z,20.48
2019-05-19T08:04:20.980Z,20.56
2019-05-19T08:07:10.785Z,20.66
2019-05-19T08:09:41.239Z,20.83
2019-05-19T08:12:11.646Z,20.94
2019-05-19T08:15:01.514Z,21.13
2019-05-19T08:17:51.403Z,21.27
2019-05-19T08:20:41.266Z,21.46
2019-05-19T08:23:31.089Z,21.62
2019-05-19T08:26:20.915Z,21.66
2019-05-19T08:29:10.719Z,21.74
2019-05-19T08:32:00.544Z,21.91
2019-05-19T08:37:35.611Z,22.13
2019-05-19T08:40:07.751Z,22.21
2019-05-19T08:42:57.578Z,22.31
2019-05-19T08:45:47.381Z,22.45
2019-05-19T08:48:37.206Z,22.52
2019-05-19T08:51:27.014Z,22.79
2019-05-19T08:54:18.960Z,23.04
2019-05-19T08:57:08.331Z,23.35
2019-05-19T08:59:38.814Z,23.72
2019-05-19T09:02:28.581Z,23.89
2019-05-19T09:04:59.058Z,24.11
2019-05-19T09:07:29.763Z,24.03
2019-05-19T09:10:20.599Z,23.90
2019-05-19T09:12:52.704Z,23.67
2019-05-19T09:15:42.709Z,23.61
2019-05-19T09:18:32.584Z,23.47
2019-05-19T09:21:22.447Z,23.51
2019-05-19T09:24:12.357Z,23.53
2019-05-19T09:26:42.765Z,23.68
2019-05-19T09:29:32.612Z,23.49
2019-05-19T09:32:22.442Z,23.56
2019-05-19T09:38:16.755Z,23.55
2019-05-19T09:41:06.625Z,23.52
2019-05-19T09:43:56.458Z,23.40
2019-05-19T09:46:46.218Z,23.58
2019-05-19T09:49:36.312Z,23.74
2019-05-19T09:52:26.091Z,23.84
2019-05-19T09:58:39.859Z,23.62
2019-05-19T10:01:29.704Z,23.58
2019-05-19T10:04:19.600Z,23.51
2019-05-19T10:07:09.721Z,23.70
2019-05-19T10:13:15.027Z,23.54
2019-05-19T10:16:04.844Z,23.77
2019-05-19T10:18:54.644Z,23.80
2019-05-19T10:21:44.498Z,23.76
2019-05-19T10:24:15.087Z,23.66
2019-05-19T10:27:05.039Z,23.78
2019-05-19T10:29:54.927Z,23.80
2019-05-19T10:32:44.812Z,23.76
2019-05-19T10:35:34.741Z,23.77
2019-05-19T10:38:05.343Z,23.83
2019-05-19T10:40:55.139Z,23.79
2019-05-19T10:43:44.989Z,23.72
2019-05-19T10:46:34.771Z,23.64
2019-05-19T10:49:05.390Z,23.94
2019-05-19T10:51:55.370Z,24.23
2019-05-19T10:54:45.203Z,24.45
2019-05-19T10:57:35.130Z,24.56
2019-05-19T11:03:09.069Z,24.90
2019-05-19T11:05:41.090Z,25.00
2019-05-19T11:08:30.907Z,25.12
2019-05-19T11:11:21.209Z,25.24
2019-05-19T11:14:11.084Z,25.27
2019-05-19T11:17:00.880Z,25.52
2019-05-19T11:19:50.690Z,25.45
2019-05-19T11:22:40.530Z,25.59
2019-05-19T11:25:33.813Z,25.68
2019-05-19T11:28:17.637Z,25.76
2019-05-19T11:31:07.466Z,25.81
2019-05-19T11:33:57.355Z,25.80
2019-05-19T11:36:47.211Z,25.43
2019-05-19T11:39:37.077Z,25.03
2019-05-19T11:42:26.907Z,25.12
2019-05-19T11:45:16.746Z,25.38
2019-05-19T11:47:47.500Z,25.54
2019-05-19T11:50:41.697Z,25.80
2019-05-19T11:53:20.331Z,26.46
2019-05-19T11:56:11.479Z,26.76
2019-05-19T11:58:53.626Z,27.20
2019-05-19T12:01:43.529Z,27.60
2019-05-19T12:04:33.398Z,27.93
2019-05-19T12:07:23.224Z,28.33
2019-05-19T12:10:13.168Z,28.61
2019-05-19T12:13:03.027Z,28.58
2019-05-19T12:15:52.871Z,28.78
2019-05-19T12:18:42.670Z,28.74
2019-05-19T12:21:32.660Z,28.54
2019-05-19T12:24:03.095Z,28.11
2019-05-19T12:26:52.953Z,27.44
2019-05-19T12:29:42.773Z,26.86
2019-05-19T12:32:32.640Z,27.25
2019-05-19T12:35:22.458Z,26.80
2019-05-19T12:38:12.309Z,26.89
2019-05-19T12:41:02.317Z,27.32
2019-05-19T12:43:52.151Z,27.47
2019-05-19T12:46:41.978Z,27.91
2019-05-19T12:49:31.857Z,27.87
2019-05-19T12:52:21.704Z,27.41
2019-05-19T12:55:11.644Z,27.19
2019-05-19T12:58:01.542Z,27.51
2019-05-19T13:00:51.448Z,27.84
2019-05-19T13:03:42.327Z,27.94
2019-05-19T13:06:32.249Z,28.25
2019-05-19T13:09:05.439Z,28.78
2019-05-19T13:11:55.319Z,28.64
2019-05-19T13:14:45.169Z,28.46
2019-05-19T13:17:34.977Z,28.33
2019-05-19T13:23:10.319Z,27.54
2019-05-19T13:25:40.750Z,27.54
2019-05-19T13:28:30.683Z,27.16
2019-05-19T13:31:20.618Z,26.78
2019-05-19T13:34:10.487Z,26.89
2019-05-19T13:37:00.301Z,26.64
2019-05-19T13:39:50.375Z,26.77
2019-05-19T13:42:40.199Z,26.78
2019-05-19T13:45:30.062Z,27.24
2019-05-19T13:48:19.913Z,27.35
2019-05-19T13:51:09.830Z,27.45
2019-05-19T13:53:59.724Z,27.33
2019-05-19T13:56:49.543Z,27.79
2019-05-19T13:59:39.409Z,28.51
2019-05-19T14:02:29.216Z,28.95
2019-05-19T14:05:19.067Z,29.39
2019-05-19T14:08:08.915Z,30.14
2019-05-19T14:10:58.730Z,30.72
2019-05-19T14:13:48.566Z,31.60
2019-05-19T14:16:38.387Z,30.48
2019-05-19T14:19:28.265Z,29.95
2019-05-19T14:22:18.123Z,31.26
2019-05-19T14:25:08.022Z,32.01
2019-05-19T14:27:57.867Z,32.37
2019-05-19T14:30:47.709Z,32.36
2019-05-19T14:33:37.533Z,32.97
2019-05-19T14:36:27.320Z,32.36
2019-05-19T14:39:17.183Z,32.09
2019-05-19T14:44:53.405Z,33.36
2019-05-19T14:47:43.216Z,33.76
2019-05-19T14:50:33.055Z,34.03
2019-05-19T14:53:23.002Z,33.88
2019-05-19T14:56:12.856Z,31.72
2019-05-19T14:59:02.771Z,31.99
2019-05-19T15:01:52.888Z,32.39
2019-05-19T15:04:23.373Z,32.00
2019-05-19T15:07:13.193Z,30.67
2019-05-19T15:10:02.998Z,29.47
2019-05-19T15:12:52.790Z,28.09
2019-05-19T15:15:23.295Z,27.21
2019-05-19T15:17:53.827Z,26.57
2019-05-19T15:20:24.371Z,26.10
2019-05-19T15:22:55.139Z,25.82
2019-05-19T15:25:25.725Z,25.19
2019-05-19T15:28:15.555Z,24.75
2019-05-19T15:31:05.516Z,24.39
2019-05-19T15:33:55.393Z,24.16
2019-05-19T15:36:25.831Z,23.55
2019-05-19T15:39:15.628Z,23.28
2019-05-19T15:42:05.434Z,22.92
2019-05-19T15:44:35.864Z,22.59
2019-05-19T15:47:07.898Z,22.53
2019-05-19T15:49:57.864Z,22.42
2019-05-19T15:52:28.393Z,22.27
2019-05-19T15:55:18.246Z,22.01
2019-05-19T15:58:16.104Z,21.85
2019-05-19T16:00:50.867Z,21.77
2019-05-19T16:03:40.657Z,21.73
2019-05-19T16:06:30.475Z,21.83
2019-05-19T16:09:20.354Z,21.89
2019-05-19T16:12:10.380Z,21.92
2019-05-19T16:15:00.369Z,21.98
2019-05-19T16:17:50.192Z,21.95
2019-05-19T16:20:40.031Z,22.10
2019-05-19T16:23:29.928Z,22.22
2019-05-19T16:26:19.776Z,22.41
2019-05-19T16:29:09.626Z,22.83
2019-05-19T16:31:59.442Z,23.24
2019-05-19T16:34:29.909Z,23.14
2019-05-19T16:37:19.774Z,23.23
2019-05-19T16:43:14.078Z,23.21
2019-05-19T16:45:44.563Z,22.86
2019-05-19T16:48:34.401Z,22.55
2019-05-19T16:51:25.188Z,22.34
2019-05-19T16:57:14.658Z,21.96
2019-05-19T17:00:05.186Z,21.81
2019-05-19T17:02:55.084Z,21.67
2019-05-19T17:05:44.917Z,21.50
2019-05-19T17:08:34.793Z,21.36
2019-05-19T17:11:24.610Z,21.24
2019-05-19T17:14:14.446Z,21.17
2019-05-19T17:17:04.394Z,21.08
2019-05-19T17:19:54.264Z,20.97
2019-05-19T17:22:44.116Z,20.74
2019-05-19T17:25:34.021Z,20.69
2019-05-19T17:28:23.952Z,20.51
2019-05-19T17:31:13.767Z,20.47
2019-05-19T17:34:03.587Z,20.31
2019-05-19T17:36:59.455Z,20.18
2019-05-19T17:39:49.264Z,20.01
2019-05-19T17:42:39.118Z,19.95
2019-05-19T17:45:29.105Z,19.84
2019-05-19T17:48:09.545Z,19.72
2019-05-19T17:50:51.173Z,19.71
2019-05-19T17:53:41.002Z,19.62
2019-05-19T17:56:31.101Z,19.51
2019-05-19T17:59:21.166Z,19.46
2019-05-19T18:02:11.029Z,19.30
2019-05-19T18:05:04.383Z,19.20
2019-05-19T18:07:54.185Z,19.08
2019-05-19T18:10:44.070Z,18.98
2019-05-19T18:13:33.897Z,18.87
2019-05-19T18:16:23.839Z,18.77
2019-05-19T18:18:54.254Z,18.66
2019-05-19T18:21:25.225Z,18.52
2019-05-19T18:24:15.268Z,18.48
2019-05-19T18:26:45.854Z,18.37
2019-05-19T18:29:35.664Z,18.25
2019-05-19T18:38:09.327Z,17.83
2019-05-19T18:40:59.186Z,17.71
2019-05-19T18:43:49.034Z,17.58
2019-05-19T18:46:38.894Z,17.46
2019-05-19T18:49:28.759Z,17.34
2019-05-19T18:51:59.247Z,17.20
2019-05-19T18:54:50.518Z,17.10
2019-05-19T18:57:28.490Z,16.95
2019-05-19T19:03:25.336Z,16.74
2019-05-19T19:06:15.220Z,16.66
2019-05-19T19:09:06.201Z,16.54
2019-05-19T19:11:55.981Z,16.46
2019-05-19T19:14:45.936Z,16.40
2019-05-19T19:17:35.704Z,16.35
2019-05-19T19:20:06.322Z,16.25
2019-05-19T19:22:56.109Z,16.16
2019-05-19T19:25:32.399Z,16.10
2019-05-19T19:28:22.612Z,16.02
2019-05-19T19:31:12.472Z,15.92
2019-05-19T19:34:02.378Z,15.87
2019-05-19T19:36:52.188Z,15.79
2019-05-19T19:39:42.003Z,15.71
2019-05-19T19:42:31.894Z,15.62
2019-05-19T19:45:21.826Z,15.56
2019-05-19T19:47:54.205Z,15.48
2019-05-19T19:50:44.053Z,15.42
2019-05-19T19:53:33.842Z,15.36
2019-05-19T19:56:23.686Z,15.36
2019-05-19T19:59:15.826Z,15.29
2019-05-19T20:02:05.648Z,15.30
2019-05-19T20:04:55.478Z,15.24
2019-05-19T20:07:25.906Z,15.19
2019-05-19T20:10:15.768Z,15.16
2019-05-19T20:13:06.623Z,15.09
2019-05-19T20:15:56.480Z,15.02
2019-05-19T20:18:46.303Z,14.98
2019-05-19T20:21:36.154Z,14.94
2019-05-19T20:24:06.551Z,14.90
2019-05-19T20:26:56.419Z,14.89
2019-05-19T20:32:35.673Z,14.97
2019-05-19T20:38:27.343Z,15.17
2019-05-19T20:41:17.500Z,15.18
2019-05-19T20:44:07.351Z,15.15
2019-05-19T20:46:57.224Z,15.10
2019-05-19T20:49:47.060Z,15.17
2019-05-19T20:52:36.920Z,15.18
2019-05-19T20:55:26.803Z,15.15
2019-05-19T20:58:16.613Z,15.12
2019-05-19T21:01:06.486Z,15.15
2019-05-19T21:03:56.296Z,15.22
2019-05-19T21:06:46.134Z,15.38
2019-05-19T21:09:16.561Z,15.38
2019-05-19T21:12:06.478Z,15.39
2019-05-19T21:14:56.393Z,15.39
2019-05-19T21:17:27.048Z,15.42
2019-05-19T21:20:16.945Z,15.40
2019-05-19T21:23:06.913Z,15.43
2019-05-19T21:25:56.754Z,15.52
2019-05-19T21:28:46.553Z,15.52
2019-05-19T21:31:36.325Z,15.55
2019-05-19T21:34:06.744Z,15.62
2019-05-19T21:36:56.545Z,15.55
2019-05-19T21:39:46.353Z,15.49
2019-05-19T21:42:36.205Z,15.41
2019-05-19T21:48:09.083Z,15.10
2019-05-19T21:50:58.969Z,14.95
2019-05-19T21:53:48.764Z,14.83
2019-05-19T21:56:41.083Z,14.75
2019-05-19T21:59:31.000Z,14.73
2019-05-19T22:02:21.180Z,14.75
2019-05-19T22:05:11.001Z,14.74
2019-05-19T22:11:26.513Z,14.57
2019-05-19T22:14:16.355Z,14.49
2019-05-19T22:17:06.170Z,14.45
2019-05-19T22:19:56.017Z,14.51
2019-05-19T22:22:45.918Z,14.62
2019-05-19T22:25:35.869Z,14.62
2019-05-19T22:28:06.409Z,14.61
2019-05-19T22:30:56.239Z,14.61
2019-05-19T22:33:46.052Z,14.61
2019-05-19T22:36:35.854Z,14.56
2019-05-19T22:39:08.158Z,14.52
2019-05-19T22:41:57.953Z,14.59
2019-05-19T22:47:50.787Z,14.57
2019-05-19T22:50:21.503Z,14.55
2019-05-19T22:53:11.324Z,14.50
2019-05-19T22:56:01.141Z,14.42
2019-05-19T22:58:50.979Z,14.38
2019-05-19T23:01:21.542Z,14.30
2019-05-19T23:04:11.488Z,14.26
2019-05-19T23:07:01.294Z,14.22
2019-05-19T23:09:51.143Z,14.19
2019-05-19T23:12:40.955Z,14.19
2019-05-19T23:15:30.776Z,14.20
2019-05-19T23:18:20.609Z,14.22
2019-05-19T23:21:10.462Z,14.26
2019-05-19T23:24:00.263Z,14.26
2019-05-19T23:26:50.082Z,14.28
2019-05-19T23:29:39.890Z,14.30
2019-05-19T23:32:29.778Z,14.29
2019-05-19T23:35:01.810Z,14.27
2019-05-19T23:37:51.650Z,14.24
2019-05-19T23:40:41.422Z,14.23
2019-05-19T23:43:31.260Z,14.28
2019-05-19T23:46:21.043Z,14.30
2019-05-19T23:49:10.882Z,14.35
2019-05-19T23:52:00.724Z,14.39
2019-05-19T23:57:53.626Z,14.43
